createdAt,value
2023-01-23T00:02:08.428Z,96574.00
2023-01-23T00:07:38.384Z,96582.00
2023-01-23T00:13:11.387Z,96578.00
2023-01-23T00:18:41.626Z,96582.00
2023-01-23T00:24:12.549Z,96587.00
2023-01-23T00:29:43.952Z,96589.00
2023-01-23T00:35:13.896Z,96586.00
2023-01-23T00:40:42.227Z,96575.00
2023-01-23T00:46:13.633Z,96579.00
2023-01-23T00:51:41.691Z,96585.00
2023-01-23T00:57:09.734Z,96589.00
2023-01-23T01:02:37.791Z,96601.00
2023-01-23T01:08:06.504Z,96598.00
2023-01-23T01:13:34.789Z,96614.00
2023-01-23T01:19:05.422Z,96612.00
2023-01-23T01:24:34.180Z,96606.00
2023-01-23T01:30:02.484Z,96611.00
2023-01-23T01:35:30.524Z,96614.00
2023-01-23T01:40:58.575Z,96601.00
2023-01-23T01:46:33.333Z,96599.00
2023-01-23T01:52:09.386Z,96588.00
2023-01-23T01:57:42.790Z,96589.00
2023-01-23T02:03:12.000Z,96579.00
2023-01-23T02:08:58.366Z,96592.00
2023-01-23T02:14:28.271Z,96583.00
2023-01-23T02:20:21.915Z,96571.00
2023-01-23T02:26:03.766Z,96573.00
2023-01-23T02:31:32.088Z,96571.00
2023-01-23T02:37:05.585Z,96572.00
2023-01-23T02:42:34.649Z,96575.00
2023-01-23T02:48:03.359Z,96572.00
2023-01-23T02:53:32.646Z,96563.00
2023-01-23T02:59:20.391Z,96563.00
2023-01-23T03:04:49.388Z,96571.00
2023-01-23T03:10:17.611Z,96594.00
2023-01-23T03:15:53.074Z,96597.00
2023-01-23T03:21:22.402Z,96592.00
2023-01-23T03:26:53.335Z,96592.00
2023-01-23T03:32:53.758Z,96599.00
2023-01-23T03:38:24.821Z,96586.00
2023-01-23T03:43:53.389Z,96591.00
2023-01-23T03:49:22.285Z,96591.00
2023-01-23T03:54:57.352Z,96597.00
2023-01-23T04:00:26.599Z,96595.00
2023-01-23T04:06:09.603Z,96595.00
2023-01-23T04:11:40.373Z,96600.00
2023-01-23T04:17:18.822Z,96606.00
2023-01-23T04:22:47.917Z,96617.00
2023-01-23T04:28:18.973Z,96614.00
2023-01-23T04:33:49.116Z,96615.00
2023-01-23T04:39:17.390Z,96612.00
2023-01-23T04:44:55.236Z,96605.00
2023-01-23T04:51:09.690Z,96604.00
2023-01-23T04:56:39.005Z,96610.00
2023-01-23T05:02:11.568Z,96615.00
2023-01-23T05:07:51.902Z,96618.00
2023-01-23T05:14:39.613Z,96610.00
2023-01-23T05:20:12.072Z,96619.00
2023-01-23T05:25:51.482Z,96630.00
2023-01-23T05:31:25.520Z,96640.00
2023-01-23T05:37:53.842Z,96642.00
2023-01-23T05:44:06.439Z,96654.00
2023-01-23T05:50:23.983Z,96653.00
2023-01-23T05:58:51.877Z,96635.00
2023-01-23T06:10:18.532Z,96642.00
2023-01-23T06:15:46.960Z,96652.00
2023-01-23T06:21:19.481Z,96656.00
2023-01-23T06:26:53.194Z,96666.00
2023-01-23T06:32:25.803Z,96663.00
2023-01-23T06:37:57.208Z,96648.00
2023-01-23T06:43:27.770Z,96642.00
2023-01-23T06:48:56.443Z,96643.00
2023-01-23T06:54:25.042Z,96646.00
2023-01-23T06:59:59.369Z,96670.00
2023-01-23T07:05:27.484Z,96681.00
2023-01-23T07:10:56.284Z,96674.00
2023-01-23T07:16:25.326Z,96692.00
2023-01-23T07:21:56.833Z,96683.00
2023-01-23T07:27:28.751Z,96705.00
2023-01-23T07:32:58.263Z,96697.00
2023-01-23T07:38:26.437Z,96677.00
2023-01-23T07:43:59.797Z,96678.00
2023-01-23T07:49:32.842Z,96693.00
2023-01-23T07:55:13.093Z,96687.00
2023-01-23T08:00:47.252Z,96696.00
2023-01-23T08:06:27.319Z,96701.00
2023-01-23T08:11:56.323Z,96694.00
2023-01-23T08:17:24.321Z,96694.00
2023-01-23T08:22:56.392Z,96693.00
2023-01-23T08:28:26.101Z,96690.00
2023-01-23T08:33:56.811Z,96705.00
2023-01-23T08:39:25.907Z,96721.00
2023-01-23T08:44:53.866Z,96703.00
2023-01-23T08:50:22.821Z,96702.00
2023-01-23T08:56:07.414Z,96714.00
2023-01-23T09:01:37.839Z,96717.00
2023-01-23T09:07:05.773Z,96701.00
2023-01-23T09:12:33.817Z,96714.00
2023-01-23T09:18:01.852Z,96719.00
2023-01-23T09:23:30.844Z,96713.00
2023-01-23T09:29:02.878Z,96696.00
2023-01-23T09:34:30.743Z,96695.00
2023-01-23T09:40:05.086Z,96705.00
2023-01-23T09:45:34.580Z,96724.00
2023-01-23T09:51:17.171Z,96728.00
2023-01-23T09:56:48.377Z,96717.00
2023-01-23T10:02:20.659Z,96718.00
2023-01-23T10:08:04.804Z,96703.00
2023-01-23T10:13:58.452Z,96709.00
2023-01-23T10:19:54.947Z,96703.00
2023-01-23T10:25:27.392Z,96686.00
2023-01-23T10:31:02.782Z,96687.00
2023-01-23T10:37:00.662Z,96683.00
2023-01-23T10:42:29.024Z,96687.00
2023-01-23T10:47:57.411Z,96682.00
2023-01-23T10:53:25.967Z,96671.00
2023-01-23T10:58:56.533Z,96666.00
2023-01-23T11:04:29.137Z,96669.00
2023-01-23T11:10:05.506Z,96661.00
2023-01-23T11:15:41.035Z,96651.00
2023-01-23T11:21:30.647Z,96656.00
2023-01-23T11:27:28.131Z,96637.00
2023-01-23T11:33:26.732Z,96627.00
2023-01-23T11:39:06.100Z,96626.00
2023-01-23T11:44:45.116Z,96630.00
2023-01-23T11:50:54.438Z,96624.00
2023-01-23T11:56:34.578Z,96621.00
2023-01-23T12:02:20.618Z,96600.00
2023-01-23T12:08:13.128Z,96602.00
2023-01-23T12:13:50.493Z,96610.00
2023-01-23T12:20:00.779Z,96589.00
2023-01-23T12:25:41.586Z,96594.00
2023-01-23T12:31:47.929Z,96580.00
2023-01-23T12:37:47.215Z,96566.00
2023-01-23T12:43:38.687Z,96575.00
2023-01-23T12:49:34.073Z,96586.00
2023-01-23T12:55:14.663Z,96581.00
2023-01-23T13:01:31.999Z,96585.00
2023-01-23T13:07:31.607Z,96584.00
2023-01-23T13:12:59.740Z,96581.00
2023-01-23T13:18:28.488Z,96584.00
2023-01-23T13:24:39.877Z,96578.00
2023-01-23T13:30:26.578Z,96587.00
2023-01-23T13:35:59.657Z,96595.00
2023-01-23T13:41:40.319Z,96586.00
2023-01-23T14:22:44.815Z,96568.00
2023-01-23T14:28:19.138Z,96573.00
2023-01-23T14:34:43.670Z,96571.00
2023-01-23T14:40:27.765Z,96570.00
2023-01-23T14:46:27.823Z,96579.00
2023-01-23T14:53:13.359Z,96569.00
2023-01-23T14:58:42.900Z,96571.00
2023-01-23T15:04:27.933Z,96575.00
2023-01-23T15:10:34.930Z,96583.00
2023-01-23T15:16:42.455Z,96583.00
2023-01-23T15:22:23.901Z,96582.00
2023-01-23T15:27:54.318Z,96590.00
2023-01-23T15:33:40.337Z,96594.00
2023-01-23T15:39:31.144Z,96596.00
2023-01-23T15:45:01.760Z,96608.00
2023-01-23T15:50:32.929Z,96599.00
2023-01-23T15:56:04.431Z,96600.00
2023-01-23T16:01:32.391Z,96609.00
2023-01-23T16:07:06.894Z,96617.00
2023-01-23T16:12:38.826Z,96615.00
2023-01-23T16:18:10.085Z,96628.00
2023-01-23T16:23:47.331Z,96614.00
2023-01-23T16:29:35.405Z,96637.00
2023-01-23T16:35:05.213Z,96621.00
2023-01-23T16:40:41.088Z,96627.00
2023-01-23T16:46:10.720Z,96628.00
2023-01-23T16:51:40.898Z,96629.00
2023-01-23T16:57:20.034Z,96628.00
2023-01-23T17:02:55.679Z,96623.00
2023-01-23T17:08:32.031Z,96625.00
2023-01-23T17:14:15.327Z,96635.00
2023-01-23T17:19:46.479Z,96633.00
2023-01-23T17:25:24.123Z,96650.00
2023-01-23T17:31:00.550Z,96641.00
2023-01-23T17:36:28.843Z,96641.00
2023-01-23T17:41:57.174Z,96640.00
2023-01-23T17:47:39.185Z,96642.00
2023-01-23T17:53:16.176Z,96649.00
2023-01-23T17:58:49.185Z,96640.00
2023-01-23T18:04:22.693Z,96643.00
2023-01-23T18:09:54.042Z,96645.00
2023-01-23T18:15:56.441Z,96650.00
2023-01-23T18:21:35.164Z,96644.00
2023-01-23T18:27:24.361Z,96648.00
2023-01-23T18:34:06.633Z,96665.00
2023-01-23T18:39:57.968Z,96661.00
2023-01-23T18:45:28.106Z,96666.00
2023-01-23T18:51:57.868Z,96665.00
2023-01-23T18:58:28.731Z,96685.00
2023-01-23T19:04:01.376Z,96679.00
2023-01-23T19:09:39.143Z,96680.00
2023-01-23T19:15:59.249Z,96683.00
2023-01-23T19:21:41.007Z,96693.00
2023-01-23T19:27:30.543Z,96700.00
2023-01-23T19:33:00.474Z,96699.00
2023-01-23T19:38:41.547Z,96711.00
2023-01-23T19:44:22.381Z,96714.00
2023-01-23T19:49:51.255Z,96711.00
2023-01-23T19:55:36.122Z,96724.00
2023-01-23T20:01:38.313Z,96730.00
2023-01-23T20:07:10.267Z,96710.00
2023-01-23T20:12:52.639Z,96730.00
2023-01-23T20:18:22.680Z,96726.00
2023-01-23T20:23:53.136Z,96727.00
2023-01-23T20:29:22.146Z,96729.00
2023-01-23T20:34:50.538Z,96729.00
2023-01-23T20:40:19.549Z,96734.00
2023-01-23T20:45:54.805Z,96742.00
2023-01-23T20:51:36.035Z,96745.00
2023-01-23T20:57:04.846Z,96743.00
2023-01-23T21:02:34.084Z,96760.00
2023-01-23T21:08:02.051Z,96761.00
2023-01-23T21:13:30.246Z,96770.00
2023-01-23T21:19:02.401Z,96759.00
2023-01-23T21:24:34.483Z,96752.00
2023-01-23T21:30:02.587Z,96760.00
2023-01-23T21:35:32.043Z,96759.00
2023-01-23T21:40:59.824Z,96771.00
2023-01-23T21:46:28.657Z,96763.00
2023-01-23T21:51:56.449Z,96775.00
2023-01-23T21:57:24.231Z,96773.00
2023-01-23T22:02:52.141Z,96770.00
2023-01-23T22:08:20.101Z,96772.00
2023-01-23T22:13:47.903Z,96777.00
2023-01-23T22:19:20.994Z,96771.00
2023-01-23T22:24:50.137Z,96779.00
2023-01-23T22:30:18.157Z,96784.00
2023-01-23T22:35:46.495Z,96787.00
2023-01-23T22:41:15.183Z,96778.00
2023-01-23T22:46:43.425Z,96781.00
2023-01-23T22:52:11.260Z,96791.00
2023-01-23T22:57:39.170Z,96791.00
2023-01-23T23:03:06.972Z,96793.00
2023-01-23T23:08:35.682Z,96790.00
2023-01-23T23:14:03.552Z,96785.00
2023-01-23T23:19:32.683Z,96783.00
2023-01-23T23:25:00.537Z,96786.00
2023-01-23T23:30:28.368Z,96779.00
2023-01-23T23:35:56.540Z,96766.00
2023-01-23T23:41:26.924Z,96777.00
2023-01-23T23:46:55.103Z,96774.00
2023-01-23T23:52:25.201Z,96775.00
2023-01-23T23:57:54.136Z,96781.00
